sensor_id;sensor_type;location;lat;lon;timestamp;pressure;altitude;pressure_sealevel;temperature;humidity
45939;BME280;31650;48.818;9.116;2024-03-06T00:02:48;98106.97;;;4.36;100.00
45939;BME280;31650;48.818;9.116;2024-03-06T00:17:56;98115.47;;;4.48;100.00
45939;BME280;31650;48.818;9.116;2024-03-06T00:33:04;98117.25;;;4.56;100.00
45939;BME280;31650;48.818;9.116;2024-03-06T00:48:05;98109.47;;;4.61;100.00
45939;BME280;31650;48.818;9.116;2024-03-06T01:03:05;98106.34;;;4.49;100.00
45939;BME280;31650;48.818;9.116;2024-03-06T01:18:07;98128.88;;;4.25;100.00
45939;BME280;31650;48.818;9.116;2024-03-06T01:33:10;98127.22;;;4.24;100.00
45939;BME280;31650;48.818;9.116;2024-03-06T01:48:35;98133.41;;;4.24;100.00
45939;BME280;31650;48.818;9.116;2024-03-06T02:04:01;98141.94;;;4.36;100.00
45939;BME280;31650;48.818;9.116;2024-03-06T02:34:33;98151.00;;;4.35;100.00
45939;BME280;31650;48.818;9.116;2024-03-06T02:49:34;98148.75;;;4.16;100.00
45939;BME280;31650;48.818;9.116;2024-03-06T03:04:40;98158.16;;;4.20;100.00
45939;BME280;31650;48.818;9.116;2024-03-06T03:19:40;98162.13;;;4.32;100.00
45939;BME280;31650;48.818;9.116;2024-03-06T04:06:07;98194.78;;;4.29;100.00
45939;BME280;31650;48.818;9.116;2024-03-06T04:21:14;98194.28;;;4.34;100.00
45939;BME280;31650;48.818;9.116;2024-03-06T04:36:15;98211.94;;;4.28;100.00
45939;BME280;31650;48.818;9.116;2024-03-06T04:51:15;98222.69;;;4.28;100.00
45939;BME280;31650;48.818;9.116;2024-03-06T05:22:10;98261.56;;;4.34;100.00
45939;BME280;31650;48.818;9.116;2024-03-06T05:37:11;98276.47;;;4.44;100.00
45939;BME280;31650;48.818;9.116;2024-03-06T05:52:12;98289.94;;;4.44;100.00
45939;BME280;31650;48.818;9.116;2024-03-06T06:07:13;98301.88;;;4.50;100.00
45939;BME280;31650;48.818;9.116;2024-03-06T06:22:14;98322.72;;;4.56;100.00
45939;BME280;31650;48.818;9.116;2024-03-06T06:37:15;98340.69;;;4.64;100.00
45939;BME280;31650;48.818;9.116;2024-03-06T06:52:35;98358.88;;;4.70;100.00
45939;BME280;31650;48.818;9.116;2024-03-06T07:07:35;98358.50;;;4.81;100.00
45939;BME280;31650;48.818;9.116;2024-03-06T07:22:36;98366.06;;;4.86;100.00
45939;BME280;31650;48.818;9.116;2024-03-06T07:37:36;98370.88;;;4.99;100.00
45939;BME280;31650;48.818;9.116;2024-03-06T07:52:37;98379.44;;;5.10;100.00
45939;BME280;31650;48.818;9.116;2024-03-06T08:07:37;98386.78;;;5.25;100.00
45939;BME280;31650;48.818;9.116;2024-03-06T08:22:38;98398.84;;;5.37;100.00
45939;BME280;31650;48.818;9.116;2024-03-06T08:37:41;98396.06;;;5.53;100.00
45939;BME280;31650;48.818;9.116;2024-03-06T08:52:42;98417.72;;;5.37;100.00
45939;BME280;31650;48.818;9.116;2024-03-06T09:07:44;98418.31;;;5.47;100.00
45939;BME280;31650;48.818;9.116;2024-03-06T09:22:44;98413.81;;;5.71;100.00
45939;BME280;31650;48.818;9.116;2024-03-06T09:37:50;98432.72;;;5.63;100.00
45939;BME280;31650;48.818;9.116;2024-03-06T09:52:51;98440.72;;;5.48;100.00
45939;BME280;31650;48.818;9.116;2024-03-06T10:07:53;98448.66;;;5.49;100.00
45939;BME280;31650;48.818;9.116;2024-03-06T10:22:56;98451.22;;;5.74;100.00
45939;BME280;31650;48.818;9.116;2024-03-06T10:37:56;98441.88;;;5.85;100.00
45939;BME280;31650;48.818;9.116;2024-03-06T10:53:01;98453.78;;;5.98;100.00
45939;BME280;31650;48.818;9.116;2024-03-06T11:08:09;98460.63;;;5.78;100.00
45939;BME280;31650;48.818;9.116;2024-03-06T11:23:11;98468.28;;;5.66;100.00
45939;BME280;31650;48.818;9.116;2024-03-06T11:38:11;98470.97;;;5.66;100.00
45939;BME280;31650;48.818;9.116;2024-03-06T11:53:12;98489.03;;;5.66;100.00
